La Tijera, Texas
Current Conditions -  °F | °C
As of 5:55 AM on Sunday 21 Dec 2014 (Local Time) from KT65 Reporting Station
Drizzle Drizzle  
Wind Chill: 55°   Ceiling: 1100
Heat Index: 55°   Visibility: 4mi
Dew Point: 52°   Wind: 6mph
Humidity: 89%   Direction: 340°NNW
Pressure: 30.07"   Gusts: NA
Location:  26.1405°N, 98.071°W
Report Text: KT65 211155Z AUTO 34005KT 4SM DZ OVC011 13/11 A3007 RMK AO2 T01280110 10131 20128
Loading
Personal Weather Stations






























Interactive Weather Map New forecast layout! Learn more

10-Day Weather Forecast

Advertisements
Track Severe Weather on mobile